sensor_id;sensor_type;location;lat;lon;timestamp;pressure;altitude;pressure_sealevel;temperature;humidity
9419;BME280;4748;50.802;7.132;2023-05-14T00:01:40;101193.09;;;12.12;100.00
9419;BME280;4748;50.802;7.132;2023-05-14T00:04:06;101191.28;;;12.13;100.00
9419;BME280;4748;50.802;7.132;2023-05-14T00:06:31;101195.19;;;12.10;100.00
9419;BME280;4748;50.802;7.132;2023-05-14T00:08:56;101177.22;;;12.11;100.00
9419;BME280;4748;50.802;7.132;2023-05-14T00:11:22;101185.50;;;12.09;100.00
9419;BME280;4748;50.802;7.132;2023-05-14T00:13:49;101186.75;;;12.07;100.00
9419;BME280;4748;50.802;7.132;2023-05-14T00:16:14;101195.84;;;12.06;100.00
9419;BME280;4748;50.802;7.132;2023-05-14T00:18:40;101187.66;;;11.94;100.00
9419;BME280;4748;50.802;7.132;2023-05-14T00:21:05;101187.97;;;11.73;100.00
9419;BME280;4748;50.802;7.132;2023-05-14T00:23:31;101186.09;;;11.80;100.00
9419;BME280;4748;50.802;7.132;2023-05-14T00:25:56;101177.41;;;11.85;100.00
9419;BME280;4748;50.802;7.132;2023-05-14T00:28:21;101191.03;;;11.83;100.00
9419;BME280;4748;50.802;7.132;2023-05-14T00:30:47;101183.75;;;11.90;100.00
9419;BME280;4748;50.802;7.132;2023-05-14T00:33:12;101185.88;;;11.82;100.00
9419;BME280;4748;50.802;7.132;2023-05-14T00:35:37;101181.16;;;11.77;100.00
9419;BME280;4748;50.802;7.132;2023-05-14T00:38:03;101177.31;;;11.67;100.00
9419;BME280;4748;50.802;7.132;2023-05-14T00:40:29;101169.66;;;11.64;100.00
9419;BME280;4748;50.802;7.132;2023-05-14T00:42:55;101176.94;;;11.57;100.00
9419;BME280;4748;50.802;7.132;2023-05-14T00:45:21;101172.97;;;11.60;100.00
9419;BME280;4748;50.802;7.132;2023-05-14T00:47:47;101176.53;;;11.54;100.00
9419;BME280;4748;50.802;7.132;2023-05-14T00:50:14;101170.72;;;11.57;100.00
9419;BME280;4748;50.802;7.132;2023-05-14T00:52:40;101166.22;;;11.44;100.00
9419;BME280;4748;50.802;7.132;2023-05-14T00:55:07;101168.91;;;11.51;100.00
9419;BME280;4748;50.802;7.132;2023-05-14T00:57:33;101177.19;;;11.36;100.00
9419;BME280;4748;50.802;7.132;2023-05-14T01:00:00;101160.50;;;11.28;100.00
9419;BME280;4748;50.802;7.132;2023-05-14T01:02:25;101167.91;;;11.32;100.00
9419;BME280;4748;50.802;7.132;2023-05-14T01:04:51;101172.25;;;11.33;100.00
9419;BME280;4748;50.802;7.132;2023-05-14T01:10:34;101176.38;;;11.36;100.00
9419;BME280;4748;50.802;7.132;2023-05-14T01:13:08;101179.22;;;11.34;100.00
9419;BME280;4748;50.802;7.132;2023-05-14T01:15:36;101175.75;;;11.34;100.00
9419;BME280;4748;50.802;7.132;2023-05-14T01:18:09;101179.66;;;11.31;100.00
9419;BME280;4748;50.802;7.132;2023-05-14T01:20:35;101176.38;;;11.29;100.00
9419;BME280;4748;50.802;7.132;2023-05-14T01:23:01;101175.56;;;11.29;100.00
9419;BME280;4748;50.802;7.132;2023-05-14T01:25:27;101173.91;;;11.28;100.00
9419;BME280;4748;50.802;7.132;2023-05-14T01:28:07;101173.31;;;11.26;100.00
9419;BME280;4748;50.802;7.132;2023-05-14T01:30:37;101171.03;;;11.23;100.00
9419;BME280;4748;50.802;7.132;2023-05-14T01:33:12;101168.19;;;11.18;100.00
9419;BME280;4748;50.802;7.132;2023-05-14T01:35:38;101168.38;;;11.17;100.00
9419;BME280;4748;50.802;7.132;2023-05-14T01:38:06;101173.53;;;11.12;100.00
9419;BME280;4748;50.802;7.132;2023-05-14T01:40:35;101167.59;;;11.10;100.00
9419;BME280;4748;50.802;7.132;2023-05-14T01:43:01;101162.44;;;11.08;100.00
9419;BME280;4748;50.802;7.132;2023-05-14T01:45:27;101167.41;;;10.98;100.00
9419;BME280;4748;50.802;7.132;2023-05-14T01:47:54;101163.06;;;10.97;100.00
9419;BME280;4748;50.802;7.132;2023-05-14T01:50:19;101173.19;;;10.95;100.00
9419;BME280;4748;50.802;7.132;2023-05-14T01:52:44;101162.88;;;10.92;100.00
9419;BME280;4748;50.802;7.132;2023-05-14T01:55:10;101162.47;;;10.89;100.00
9419;BME280;4748;50.802;7.132;2023-05-14T01:57:36;101154.84;;;10.86;100.00
9419;BME280;4748;50.802;7.132;2023-05-14T02:00:01;101155.69;;;10.80;100.00
9419;BME280;4748;50.802;7.132;2023-05-14T02:02:28;101148.69;;;10.79;100.00
9419;BME280;4748;50.802;7.132;2023-05-14T02:04:53;101144.34;;;10.84;100.00
9419;BME280;4748;50.802;7.132;2023-05-14T02:07:19;101154.88;;;10.79;100.00
9419;BME280;4748;50.802;7.132;2023-05-14T02:09:44;101145.78;;;10.80;100.00
9419;BME280;4748;50.802;7.132;2023-05-14T02:12:10;101148.91;;;10.77;100.00
9419;BME280;4748;50.802;7.132;2023-05-14T02:14:36;101147.06;;;10.71;100.00
9419;BME280;4748;50.802;7.132;2023-05-14T02:17:01;101148.28;;;10.69;100.00
9419;BME280;4748;50.802;7.132;2023-05-14T02:19:28;101145.63;;;10.69;100.00
9419;BME280;4748;50.802;7.132;2023-05-14T02:21:53;101140.03;;;10.70;100.00
9419;BME280;4748;50.802;7.132;2023-05-14T02:24:18;101136.97;;;10.67;100.00
9419;BME280;4748;50.802;7.132;2023-05-14T02:26:44;101138.44;;;10.57;100.00
9419;BME280;4748;50.802;7.132;2023-05-14T02:29:09;101136.16;;;10.67;100.00
9419;BME280;4748;50.802;7.132;2023-05-14T02:31:35;101138.22;;;10.65;100.00
9419;BME280;4748;50.802;7.132;2023-05-14T02:34:01;101141.91;;;10.64;100.00
9419;BME280;4748;50.802;7.132;2023-05-14T02:36:27;101134.94;;;10.56;100.00
9419;BME280;4748;50.802;7.132;2023-05-14T02:38:52;101136.16;;;10.60;100.00
9419;BME280;4748;50.802;7.132;2023-05-14T02:41:17;101135.75;;;10.57;100.00
9419;BME280;4748;50.802;7.132;2023-05-14T02:43:43;101133.91;;;10.57;100.00
9419;BME280;4748;50.802;7.132;2023-05-14T02:46:08;101136.38;;;10.46;100.00
9419;BME280;4748;50.802;7.132;2023-05-14T02:48:34;101125.88;;;10.44;100.00
9419;BME280;4748;50.802;7.132;2023-05-14T02:50:59;101126.31;;;10.41;100.00
9419;BME280;4748;50.802;7.132;2023-05-14T02:53:24;101126.28;;;10.35;100.00
9419;BME280;4748;50.802;7.132;2023-05-14T02:55:50;101128.78;;;10.23;100.00
9419;BME280;4748;50.802;7.132;2023-05-14T02:58:15;101128.78;;;10.30;100.00
9419;BME280;4748;50.802;7.132;2023-05-14T03:00:40;101130.84;;;10.21;100.00
9419;BME280;4748;50.802;7.132;2023-05-14T03:03:06;101131.03;;;10.26;100.00
9419;BME280;4748;50.802;7.132;2023-05-14T03:05:31;101130.00;;;10.21;100.00
9419;BME280;4748;50.802;7.132;2023-05-14T03:07:57;101135.16;;;10.16;100.00
9419;BME280;4748;50.802;7.132;2023-05-14T03:10:22;101130.41;;;10.18;100.00
9419;BME280;4748;50.802;7.132;2023-05-14T03:12:47;101126.53;;;10.14;100.00
9419;BME280;4748;50.802;7.132;2023-05-14T03:15:13;101127.13;;;10.16;100.00
9419;BME280;4748;50.802;7.132;2023-05-14T03:17:38;101121.97;;;10.15;100.00
9419;BME280;4748;50.802;7.132;2023-05-14T03:20:04;101114.78;;;10.09;100.00
9419;BME280;4748;50.802;7.132;2023-05-14T03:22:30;101122.59;;;10.04;100.00
9419;BME280;4748;50.802;7.132;2023-05-14T03:24:55;101121.97;;;10.08;100.00
9419;BME280;4748;50.802;7.132;2023-05-14T03:27:20;101128.13;;;10.02;100.00
9419;BME280;4748;50.802;7.132;2023-05-14T03:29:46;101118.66;;;9.93;100.00
9419;BME280;4748;50.802;7.132;2023-05-14T03:32:11;101124.63;;;9.89;100.00
9419;BME280;4748;50.802;7.132;2023-05-14T03:34:36;101120.47;;;9.86;100.00
9419;BME280;4748;50.802;7.132;2023-05-14T03:37:02;101118.81;;;9.85;100.00
9419;BME280;4748;50.802;7.132;2023-05-14T03:39:27;101115.72;;;9.75;100.00
9419;BME280;4748;50.802;7.132;2023-05-14T03:41:53;101124.97;;;9.66;100.00
9419;BME280;4748;50.802;7.132;2023-05-14T03:44:21;101110.59;;;9.67;100.00
9419;BME280;4748;50.802;7.132;2023-05-14T03:46:46;101118.38;;;9.56;100.00
9419;BME280;4748;50.802;7.132;2023-05-14T03:49:11;101120.00;;;9.51;100.00
9419;BME280;4748;50.802;7.132;2023-05-14T03:51:37;101120.22;;;9.56;100.00
9419;BME280;4748;50.802;7.132;2023-05-14T03:54:02;101116.69;;;9.49;100.00
9419;BME280;4748;50.802;7.132;2023-05-14T03:56:27;101125.78;;;9.61;100.00
9419;BME280;4748;50.802;7.132;2023-05-14T03:58:53;101123.31;;;9.65;100.00
9419;BME280;4748;50.802;7.132;2023-05-14T04:01:18;101118.00;;;9.72;100.00
9419;BME280;4748;50.802;7.132;2023-05-14T04:03:43;101107.28;;;9.65;100.00
9419;BME280;4748;50.802;7.132;2023-05-14T04:06:09;101107.91;;;9.74;100.00
9419;BME280;4748;50.802;7.132;2023-05-14T04:08:35;101106.09;;;9.74;100.00
9419;BME280;4748;50.802;7.132;2023-05-14T04:11:00;101114.88;;;9.68;100.00
9419;BME280;4748;50.802;7.132;2023-05-14T04:13:25;101115.72;;;9.75;100.00
9419;BME280;4748;50.802;7.132;2023-05-14T04:15:51;101113.91;;;9.89;100.00
9419;BME280;4748;50.802;7.132;2023-05-14T04:18:16;101114.13;;;9.87;100.00
9419;BME280;4748;50.802;7.132;2023-05-14T04:20:41;101123.41;;;9.98;100.00
9419;BME280;4748;50.802;7.132;2023-05-14T04:23:07;101113.13;;;10.08;100.00
9419;BME280;4748;50.802;7.132;2023-05-14T04:25:32;101119.28;;;9.95;100.00
9419;BME280;4748;50.802;7.132;2023-05-14T04:27:57;101116.63;;;10.08;100.00
9419;BME280;4748;50.802;7.132;2023-05-14T04:30:23;101122.59;;;10.04;100.00
9419;BME280;4748;50.802;7.132;2023-05-14T04:32:48;101116.44;;;10.16;100.00
9419;BME280;4748;50.802;7.132;2023-05-14T04:35:13;101127.13;;;10.29;100.00
9419;BME280;4748;50.802;7.132;2023-05-14T04:37:39;101119.94;;;10.23;100.00
9419;BME280;4748;50.802;7.132;2023-05-14T04:40:06;101117.84;;;10.25;100.00
9419;BME280;4748;50.802;7.132;2023-05-14T04:42:32;101115.59;;;10.35;100.00
9419;BME280;4748;50.802;7.132;2023-05-14T04:44:57;101130.41;;;10.44;100.00
9419;BME280;4748;50.802;7.132;2023-05-14T04:47:22;101131.84;;;10.53;100.00
9419;BME280;4748;50.802;7.132;2023-05-14T04:49:48;101135.75;;;10.63;100.00
9419;BME280;4748;50.802;7.132;2023-05-14T04:52:13;101139.88;;;10.66;100.00
9419;BME280;4748;50.802;7.132;2023-05-14T04:54:38;101134.88;;;10.82;100.00
9419;BME280;4748;50.802;7.132;2023-05-14T04:57:04;101137.31;;;11.03;100.00
9419;BME280;4748;50.802;7.132;2023-05-14T04:59:30;101144.50;;;11.09;100.00
9419;BME280;4748;50.802;7.132;2023-05-14T05:01:55;101140.94;;;11.27;100.00
9419;BME280;4748;50.802;7.132;2023-05-14T05:04:21;101146.03;;;11.35;100.00
9419;BME280;4748;50.802;7.132;2023-05-14T05:06:48;101144.19;;;11.49;100.00
9419;BME280;4748;50.802;7.132;2023-05-14T05:09:14;101154.41;;;11.65;100.00
9419;BME280;4748;50.802;7.132;2023-05-14T05:11:39;101153.91;;;11.74;100.00
9419;BME280;4748;50.802;7.132;2023-05-14T05:14:04;101166.09;;;11.76;100.00
9419;BME280;4748;50.802;7.132;2023-05-14T05:16:30;101161.13;;;11.80;100.00
9419;BME280;4748;50.802;7.132;2023-05-14T05:18:55;101165.28;;;11.76;100.00
9419;BME280;4748;50.802;7.132;2023-05-14T05:21:20;101164.66;;;11.74;100.00
9419;BME280;4748;50.802;7.132;2023-05-14T05:23:46;101157.78;;;12.15;100.00
9419;BME280;4748;50.802;7.132;2023-05-14T05:26:11;101158.56;;;12.22;100.00
9419;BME280;4748;50.802;7.132;2023-05-14T05:28:37;101165.53;;;12.29;100.00
9419;BME280;4748;50.802;7.132;2023-05-14T05:31:02;101171.25;;;12.39;100.00
9419;BME280;4748;50.802;7.132;2023-05-14T05:33:27;101171.69;;;12.85;100.00
9419;BME280;4748;50.802;7.132;2023-05-14T05:35:53;101180.00;;;12.77;100.00
9419;BME280;4748;50.802;7.132;2023-05-14T05:38:18;101184.84;;;13.11;100.00
9419;BME280;4748;50.802;7.132;2023-05-14T05:40:43;101183.72;;;13.18;100.00
9419;BME280;4748;50.802;7.132;2023-05-14T05:43:09;101186.97;;;13.91;100.00
9419;BME280;4748;50.802;7.132;2023-05-14T05:45:34;101192.69;;;14.65;100.00
9419;BME280;4748;50.802;7.132;2023-05-14T05:47:59;101197.13;;;14.48;100.00
9419;BME280;4748;50.802;7.132;2023-05-14T05:50:25;101193.50;;;14.99;100.00
9419;BME280;4748;50.802;7.132;2023-05-14T05:52:51;101188.97;;;15.34;100.00
9419;BME280;4748;50.802;7.132;2023-05-14T05:55:16;101197.09;;;15.62;100.00
9419;BME280;4748;50.802;7.132;2023-05-14T05:57:42;101197.84;;;15.85;100.00
9419;BME280;4748;50.802;7.132;2023-05-14T06:00:07;101190.63;;;15.90;100.00
9419;BME280;4748;50.802;7.132;2023-05-14T06:02:42;101189.41;;;15.82;100.00
9419;BME280;4748;50.802;7.132;2023-05-14T06:05:08;101189.94;;;15.56;100.00
9419;BME280;4748;50.802;7.132;2023-05-14T06:07:34;101190.53;;;15.58;100.00
9419;BME280;4748;50.802;7.132;2023-05-14T06:10:00;101184.66;;;15.49;100.00
9419;BME280;4748;50.802;7.132;2023-05-14T06:12:25;101191.19;;;15.14;100.00
9419;BME280;4748;50.802;7.132;2023-05-14T06:14:50;101183.69;;;14.93;100.00
9419;BME280;4748;50.802;7.132;2023-05-14T06:17:16;101180.25;;;15.09;100.00
9419;BME280;4748;50.802;7.132;2023-05-14T06:19:42;101190.00;;;15.33;100.00
9419;BME280;4748;50.802;7.132;2023-05-14T06:22:07;101194.91;;;15.36;100.00
9419;BME280;4748;50.802;7.132;2023-05-14T06:24:32;101195.63;;;15.43;100.00
9419;BME280;4748;50.802;7.132;2023-05-14T06:26:58;101195.13;;;15.46;100.00
9419;BME280;4748;50.802;7.132;2023-05-14T06:29:24;101194.91;;;15.36;100.00
9419;BME280;4748;50.802;7.132;2023-05-14T06:31:49;101201.97;;;15.37;100.00
9419;BME280;4748;50.802;7.132;2023-05-14T06:34:15;101201.56;;;15.56;100.00
9419;BME280;4748;50.802;7.132;2023-05-14T06:36:40;101194.06;;;15.58;100.00
9419;BME280;4748;50.802;7.132;2023-05-14T06:39:05;101195.03;;;15.52;100.00
9419;BME280;4748;50.802;7.132;2023-05-14T06:41:31;101196.28;;;15.89;100.00
9419;BME280;4748;50.802;7.132;2023-05-14T06:43:56;101184.47;;;15.39;100.00
9419;BME280;4748;50.802;7.132;2023-05-14T06:46:21;101185.63;;;15.43;100.00
9419;BME280;4748;50.802;7.132;2023-05-14T06:48:47;101180.22;;;15.43;100.00
9419;BME280;4748;50.802;7.132;2023-05-14T06:51:12;101179.34;;;15.66;100.00
9419;BME280;4748;50.802;7.132;2023-05-14T06:53:39;101181.56;;;15.69;100.00
9419;BME280;4748;50.802;7.132;2023-05-14T06:56:04;101183.88;;;15.49;100.00
9419;BME280;4748;50.802;7.132;2023-05-14T06:58:30;101186.59;;;15.37;100.00
9419;BME280;4748;50.802;7.132;2023-05-14T07:00:55;101185.00;;;15.64;100.00
9419;BME280;4748;50.802;7.132;2023-05-14T07:03:21;101177.88;;;15.86;100.00
9419;BME280;4748;50.802;7.132;2023-05-14T07:05:47;101180.13;;;16.05;100.00
9419;BME280;4748;50.802;7.132;2023-05-14T07:08:12;101184.97;;;16.31;100.00
9419;BME280;4748;50.802;7.132;2023-05-14T07:10:37;101187.78;;;16.36;100.00
9419;BME280;4748;50.802;7.132;2023-05-14T07:13:03;101180.38;;;16.32;100.00
9419;BME280;4748;50.802;7.132;2023-05-14T07:15:29;101186.38;;;16.50;100.00
9419;BME280;4748;50.802;7.132;2023-05-14T07:17:54;101191.63;;;16.56;100.00
9419;BME280;4748;50.802;7.132;2023-05-14T07:20:20;101199.56;;;16.79;100.00
9419;BME280;4748;50.802;7.132;2023-05-14T07:22:48;101195.03;;;17.17;100.00
9419;BME280;4748;50.802;7.132;2023-05-14T07:25:13;101193.69;;;17.36;100.00
9419;BME280;4748;50.802;7.132;2023-05-14T07:27:38;101197.03;;;17.43;100.00
9419;BME280;4748;50.802;7.132;2023-05-14T07:30:04;101188.28;;;17.57;100.00
9419;BME280;4748;50.802;7.132;2023-05-14T07:32:30;101179.88;;;17.80;100.00
9419;BME280;4748;50.802;7.132;2023-05-14T07:34:55;101185.38;;;17.42;100.00
9419;BME280;4748;50.802;7.132;2023-05-14T07:37:20;101190.03;;;17.68;100.00
9419;BME280;4748;50.802;7.132;2023-05-14T07:39:47;101183.31;;;17.71;100.00
9419;BME280;4748;50.802;7.132;2023-05-14T07:42:12;101173.00;;;17.94;100.00
9419;BME280;4748;50.802;7.132;2023-05-14T07:44:37;101178.50;;;18.25;100.00
9419;BME280;4748;50.802;7.132;2023-05-14T07:47:03;101179.22;;;17.94;100.00
9419;BME280;4748;50.802;7.132;2023-05-14T07:49:28;101178.84;;;18.29;100.00
9419;BME280;4748;50.802;7.132;2023-05-14T07:51:53;101182.81;;;18.21;100.00
9419;BME280;4748;50.802;7.132;2023-05-14T07:54:19;101175.59;;;18.63;100.00
9419;BME280;4748;50.802;7.132;2023-05-14T07:56:44;101168.63;;;18.41;100.00
9419;BME280;4748;50.802;7.132;2023-05-14T07:59:09;101170.00;;;18.43;100.00
9419;BME280;4748;50.802;7.132;2023-05-14T08:01:35;101170.47;;;18.66;100.00
9419;BME280;4748;50.802;7.132;2023-05-14T08:04:00;101164.47;;;19.00;100.00
9419;BME280;4748;50.802;7.132;2023-05-14T08:06:26;101167.19;;;19.00;100.00
9419;BME280;4748;50.802;7.132;2023-05-14T08:08:52;101160.56;;;19.18;100.00
9419;BME280;4748;50.802;7.132;2023-05-14T08:11:17;101160.94;;;19.46;100.00
9419;BME280;4748;50.802;7.132;2023-05-14T08:13:43;101161.47;;;19.38;100.00
9419;BME280;4748;50.802;7.132;2023-05-14T08:16:08;101148.47;;;19.50;100.00
9419;BME280;4748;50.802;7.132;2023-05-14T08:18:34;101157.06;;;19.22;100.00
9419;BME280;4748;50.802;7.132;2023-05-14T08:20:59;101156.97;;;19.63;100.00
9419;BME280;4748;50.802;7.132;2023-05-14T08:23:25;101163.91;;;19.40;100.00
9419;BME280;4748;50.802;7.132;2023-05-14T08:25:50;101154.56;;;19.72;100.00
9419;BME280;4748;50.802;7.132;2023-05-14T08:28:16;101151.31;;;19.85;100.00
9419;BME280;4748;50.802;7.132;2023-05-14T08:30:41;101153.03;;;20.10;100.00
9419;BME280;4748;50.802;7.132;2023-05-14T08:33:07;101154.69;;;20.26;100.00
9419;BME280;4748;50.802;7.132;2023-05-14T08:35:32;101147.59;;;20.00;100.00
9419;BME280;4748;50.802;7.132;2023-05-14T08:37:57;101144.59;;;20.02;100.00
9419;BME280;4748;50.802;7.132;2023-05-14T08:40:23;101144.59;;;20.17;100.00
9419;BME280;4748;50.802;7.132;2023-05-14T08:42:50;101148.16;;;20.52;100.00
9419;BME280;4748;50.802;7.132;2023-05-14T08:45:19;101146.25;;;20.67;100.00
9419;BME280;4748;50.802;7.132;2023-05-14T08:47:49;101157.69;;;20.64;100.00
9419;BME280;4748;50.802;7.132;2023-05-14T08:50:15;101149.81;;;20.78;100.00
9419;BME280;4748;50.802;7.132;2023-05-14T08:52:41;101142.19;;;20.85;100.00
9419;BME280;4748;50.802;7.132;2023-05-14T08:55:07;101141.66;;;20.73;100.00
9419;BME280;4748;50.802;7.132;2023-05-14T08:57:34;101146.84;;;20.74;100.00
9419;BME280;4748;50.802;7.132;2023-05-14T09:00:00;101142.16;;;20.65;100.00
9419;BME280;4748;50.802;7.132;2023-05-14T09:02:30;101138.63;;;21.04;100.00
9419;BME280;4748;50.802;7.132;2023-05-14T09:04:57;101134.75;;;21.20;100.00
9419;BME280;4748;50.802;7.132;2023-05-14T09:07:23;101130.91;;;21.31;100.00
9419;BME280;4748;50.802;7.132;2023-05-14T09:09:50;101126.81;;;21.28;100.00
9419;BME280;4748;50.802;7.132;2023-05-14T09:12:16;101133.03;;;21.44;100.00
9419;BME280;4748;50.802;7.132;2023-05-14T09:14:41;101124.03;;;21.53;100.00
9419;BME280;4748;50.802;7.132;2023-05-14T09:17:07;101126.81;;;21.33;100.00
9419;BME280;4748;50.802;7.132;2023-05-14T09:19:32;101130.53;;;21.57;100.00
9419;BME280;4748;50.802;7.132;2023-05-14T09:21:58;101133.53;;;21.60;100.00
9419;BME280;4748;50.802;7.132;2023-05-14T09:24:25;101128.94;;;21.46;100.00
9419;BME280;4748;50.802;7.132;2023-05-14T09:26:53;101124.00;;;21.58;100.00
9419;BME280;4748;50.802;7.132;2023-05-14T09:29:19;101122.66;;;21.55;100.00
9419;BME280;4748;50.802;7.132;2023-05-14T09:31:44;101108.50;;;21.53;100.00
9419;BME280;4748;50.802;7.132;2023-05-14T09:34:10;101103.50;;;21.65;100.00
9419;BME280;4748;50.802;7.132;2023-05-14T09:36:36;101104.75;;;21.88;100.00
9419;BME280;4748;50.802;7.132;2023-05-14T09:39:04;101101.88;;;22.12;100.00
9419;BME280;4748;50.802;7.132;2023-05-14T09:41:30;101095.72;;;22.30;100.00
9419;BME280;4748;50.802;7.132;2023-05-14T09:43:56;101099.09;;;22.22;100.00
9419;BME280;4748;50.802;7.132;2023-05-14T09:46:22;101099.72;;;22.04;100.00
9419;BME280;4748;50.802;7.132;2023-05-14T09:48:48;101095.72;;;22.30;100.00
9419;BME280;4748;50.802;7.132;2023-05-14T09:51:13;101092.50;;;22.23;100.00
9419;BME280;4748;50.802;7.132;2023-05-14T09:53:40;101087.59;;;22.25;100.00
9419;BME280;4748;50.802;7.132;2023-05-14T09:56:07;101077.25;;;22.17;100.00
9419;BME280;4748;50.802;7.132;2023-05-14T09:58:32;101079.91;;;22.32;100.00
9419;BME280;4748;50.802;7.132;2023-05-14T10:01:00;101085.72;;;22.49;100.00
9419;BME280;4748;50.802;7.132;2023-05-14T10:03:28;101074.72;;;22.59;100.00
9419;BME280;4748;50.802;7.132;2023-05-14T10:05:55;101079.06;;;22.65;100.00
9419;BME280;4748;50.802;7.132;2023-05-14T10:08:35;101066.47;;;22.92;95.23
9419;BME280;4748;50.802;7.132;2023-05-14T10:11:05;101074.59;;;22.74;99.40
9419;BME280;4748;50.802;7.132;2023-05-14T10:13:37;101065.63;;;22.68;92.66
9419;BME280;4748;50.802;7.132;2023-05-14T10:16:14;101065.38;;;23.16;95.60
9419;BME280;4748;50.802;7.132;2023-05-14T10:18:42;101066.53;;;23.52;100.00
9419;BME280;4748;50.802;7.132;2023-05-14T10:21:13;101050.69;;;23.31;95.28
9419;BME280;4748;50.802;7.132;2023-05-14T10:23:39;101048.44;;;23.56;98.23
9419;BME280;4748;50.802;7.132;2023-05-14T10:26:05;101050.25;;;23.84;99.93
9419;BME280;4748;50.802;7.132;2023-05-14T10:28:31;101059.22;;;23.48;100.00
9419;BME280;4748;50.802;7.132;2023-05-14T10:30:58;101050.28;;;23.60;95.64
9419;BME280;4748;50.802;7.132;2023-05-14T10:33:24;101041.28;;;23.42;98.52
9419;BME280;4748;50.802;7.132;2023-05-14T10:36:02;101040.34;;;22.81;88.90
9419;BME280;4748;50.802;7.132;2023-05-14T10:38:29;101047.09;;;22.37;98.81
9419;BME280;4748;50.802;7.132;2023-05-14T10:40:58;101040.63;;;22.28;99.51
9419;BME280;4748;50.802;7.132;2023-05-14T10:43:25;101041.94;;;22.03;99.58
9419;BME280;4748;50.802;7.132;2023-05-14T10:45:52;101038.66;;;22.01;100.00
9419;BME280;4748;50.802;7.132;2023-05-14T10:48:18;101035.41;;;21.99;100.00
9419;BME280;4748;50.802;7.132;2023-05-14T10:50:46;101036.31;;;22.17;99.83
9419;BME280;4748;50.802;7.132;2023-05-14T10:53:12;101036.13;;;22.09;99.86
9419;BME280;4748;50.802;7.132;2023-05-14T10:55:38;101020.00;;;22.12;99.51
9419;BME280;4748;50.802;7.132;2023-05-14T10:58:04;101019.69;;;22.47;100.00
9419;BME280;4748;50.802;7.132;2023-05-14T11:00:33;101020.59;;;22.38;100.00
9419;BME280;4748;50.802;7.132;2023-05-14T11:03:02;101023.44;;;21.90;100.00
9419;BME280;4748;50.802;7.132;2023-05-14T11:05:28;101013.75;;;21.79;100.00
9419;BME280;4748;50.802;7.132;2023-05-14T11:07:56;101020.78;;;21.37;100.00
9419;BME280;4748;50.802;7.132;2023-05-14T11:10:22;101022.16;;;21.39;100.00
9419;BME280;4748;50.802;7.132;2023-05-14T11:12:50;101019.47;;;21.29;100.00
9419;BME280;4748;50.802;7.132;2023-05-14T11:15:19;101017.31;;;21.26;100.00
9419;BME280;4748;50.802;7.132;2023-05-14T11:17:46;101018.50;;;21.10;100.00
9419;BME280;4748;50.802;7.132;2023-05-14T11:20:12;101012.25;;;21.00;100.00
9419;BME280;4748;50.802;7.132;2023-05-14T11:22:39;101021.50;;;21.04;100.00
9419;BME280;4748;50.802;7.132;2023-05-14T11:25:05;101023.50;;;20.84;100.00
9419;BME280;4748;50.802;7.132;2023-05-14T11:27:33;101029.50;;;20.76;100.00
9419;BME280;4748;50.802;7.132;2023-05-14T11:29:59;101019.09;;;20.93;100.00
9419;BME280;4748;50.802;7.132;2023-05-14T11:32:25;101015.81;;;20.96;100.00
9419;BME280;4748;50.802;7.132;2023-05-14T11:34:50;101012.53;;;21.03;100.00
9419;BME280;4748;50.802;7.132;2023-05-14T11:37:16;101004.84;;;21.15;100.00
9419;BME280;4748;50.802;7.132;2023-05-14T11:39:49;101006.44;;;21.21;95.70
9419;BME280;4748;50.802;7.132;2023-05-14T11:42:16;100991.59;;;21.47;100.00
9419;BME280;4748;50.802;7.132;2023-05-14T11:44:45;100991.78;;;21.60;94.15
9419;BME280;4748;50.802;7.132;2023-05-14T11:47:11;100996.81;;;21.82;96.57
9419;BME280;4748;50.802;7.132;2023-05-14T11:49:36;100992.84;;;21.98;97.29
9419;BME280;4748;50.802;7.132;2023-05-14T11:52:06;100990.84;;;21.75;86.32
9419;BME280;4748;50.802;7.132;2023-05-14T11:54:34;100985.34;;;21.80;91.33
9419;BME280;4748;50.802;7.132;2023-05-14T11:57:03;100982.53;;;21.90;92.10
9419;BME280;4748;50.802;7.132;2023-05-14T11:59:31;100990.69;;;21.95;92.93
9419;BME280;4748;50.802;7.132;2023-05-14T12:01:57;100983.59;;;21.94;92.99
9419;BME280;4748;50.802;7.132;2023-05-14T12:04:23;100983.59;;;21.94;91.61
9419;BME280;4748;50.802;7.132;2023-05-14T16:57:38;100751.16;;;22.61;67.07
9419;BME280;4748;50.802;7.132;2023-05-14T17:00:04;100757.34;;;22.67;67.32
9419;BME280;4748;50.802;7.132;2023-05-14T17:02:30;100755.81;;;22.61;66.60
9419;BME280;4748;50.802;7.132;2023-05-14T17:04:56;100761.16;;;22.66;66.59
9419;BME280;4748;50.802;7.132;2023-05-14T17:07:21;100757.34;;;22.67;67.22
9419;BME280;4748;50.802;7.132;2023-05-14T17:09:47;100756.59;;;22.61;66.92
9419;BME280;4748;50.802;7.132;2023-05-14T17:12:12;100758.75;;;22.64;66.39
9419;BME280;4748;50.802;7.132;2023-05-14T17:14:38;100755.94;;;22.51;66.02
9419;BME280;4748;50.802;7.132;2023-05-14T17:17:03;100755.84;;;22.38;67.02
9419;BME280;4748;50.802;7.132;2023-05-14T17:19:28;100752.41;;;22.32;67.57
9419;BME280;4748;50.802;7.132;2023-05-14T17:21:54;100757.66;;;22.05;67.83
9419;BME280;4748;50.802;7.132;2023-05-14T17:24:19;100748.88;;;22.08;67.77
9419;BME280;4748;50.802;7.132;2023-05-14T17:26:45;100759.03;;;22.03;67.90
9419;BME280;4748;50.802;7.132;2023-05-14T17:29:10;100759.03;;;22.03;66.80
9419;BME280;4748;50.802;7.132;2023-05-14T17:31:35;100767.84;;;21.95;67.98
9419;BME280;4748;50.802;7.132;2023-05-14T17:34:01;100757.81;;;21.91;69.29
9419;BME280;4748;50.802;7.132;2023-05-14T17:36:26;100757.06;;;21.85;70.23
9419;BME280;4748;50.802;7.132;2023-05-14T17:38:52;100758.66;;;21.91;69.62
9419;BME280;4748;50.802;7.132;2023-05-14T17:41:17;100761.88;;;21.93;70.36
9419;BME280;4748;50.802;7.132;2023-05-14T17:43:43;100758.97;;;21.85;70.79
9419;BME280;4748;50.802;7.132;2023-05-14T17:46:08;100757.91;;;21.86;70.65
9419;BME280;4748;50.802;7.132;2023-05-14T17:48:34;100764.94;;;21.87;70.61
9419;BME280;4748;50.802;7.132;2023-05-14T17:50:59;100773.53;;;21.75;70.77